createdAt,value
2018-09-28T00:00:09.258Z,929.55
2018-09-28T00:01:09.330Z,929.55
2018-09-28T00:02:09.280Z,929.60
2018-09-28T00:03:09.294Z,929.61
2018-09-28T00:04:09.432Z,929.66
2018-09-28T00:05:09.330Z,929.66
2018-09-28T00:06:09.400Z,929.67
2018-09-28T00:07:09.420Z,929.73
2018-09-28T00:08:09.356Z,929.72
2018-09-28T00:09:09.399Z,929.74
2018-09-28T00:10:09.409Z,929.69
2018-09-28T00:11:09.621Z,929.71
2018-09-28T00:12:09.433Z,929.66
2018-09-28T00:13:09.439Z,929.63
2018-09-28T00:14:09.478Z,929.63
2018-09-28T00:15:09.468Z,929.63
2018-09-28T00:16:09.712Z,929.64
2018-09-28T00:17:09.516Z,929.65
2018-09-28T00:18:09.513Z,929.62
2018-09-28T00:19:09.556Z,929.64
2018-09-28T00:20:09.584Z,929.63
2018-09-28T00:21:09.747Z,929.65
2018-09-28T00:22:09.589Z,929.67
2018-09-28T00:23:09.600Z,929.66
2018-09-28T00:24:09.591Z,929.63
2018-09-28T00:25:09.618Z,929.62
2018-09-28T00:26:09.676Z,929.64
2018-09-28T00:27:09.654Z,929.61
2018-09-28T00:28:09.674Z,929.69
2018-09-28T00:29:09.668Z,929.71
2018-09-28T00:30:09.694Z,929.76
2018-09-28T00:31:09.756Z,929.73
2018-09-28T00:32:09.716Z,929.75
2018-09-28T00:33:09.739Z,929.79
2018-09-28T00:34:09.750Z,929.81
2018-09-28T00:35:09.761Z,929.84
2018-09-28T00:36:09.815Z,929.86
2018-09-28T00:37:09.807Z,929.89
2018-09-28T00:38:09.801Z,929.90
2018-09-28T00:39:09.838Z,929.94
2018-09-28T00:40:09.817Z,929.91
2018-09-28T00:41:09.937Z,929.92
2018-09-28T00:42:09.865Z,929.89
2018-09-28T00:43:09.864Z,929.91
2018-09-28T00:44:09.884Z,929.91
2018-09-28T00:45:09.907Z,929.94
2018-09-28T00:46:10.008Z,929.95
2018-09-28T00:47:09.940Z,929.97
2018-09-28T00:48:09.956Z,930.01
2018-09-28T00:49:09.964Z,930.04
2018-09-28T00:50:09.969Z,930.01
2018-09-28T00:51:10.210Z,930.02
2018-09-28T00:52:10.017Z,930.05
2018-09-28T00:53:10.037Z,930.08
2018-09-28T00:54:10.028Z,930.11
2018-09-28T00:55:10.049Z,930.14
2018-09-28T00:56:10.272Z,930.21
2018-09-28T00:57:10.090Z,930.24
2018-09-28T00:58:10.103Z,930.28
2018-09-28T00:59:10.093Z,930.31
2018-09-28T01:00:10.115Z,930.28
2018-09-28T01:01:10.406Z,930.29
2018-09-28T01:02:10.150Z,930.26
2018-09-28T01:03:10.170Z,930.23
2018-09-28T01:04:10.183Z,930.14
2018-09-28T01:05:10.201Z,930.14
2018-09-28T01:06:10.325Z,930.13
2018-09-28T01:07:10.232Z,930.13
2018-09-28T01:08:10.256Z,930.14
2018-09-28T01:09:10.254Z,930.10
2018-09-28T01:10:10.283Z,930.12
2018-09-28T01:11:10.316Z,930.07
2018-09-28T01:12:10.407Z,930.09
2018-09-28T01:13:10.301Z,930.08
2018-09-28T01:14:10.330Z,930.07
2018-09-28T01:15:10.361Z,930.10
2018-09-28T01:16:10.355Z,930.08
2018-09-28T01:17:10.539Z,930.12
2018-09-28T01:18:10.373Z,930.08
2018-09-28T01:19:10.386Z,930.08
2018-09-28T01:20:10.423Z,930.06
2018-09-28T01:21:10.455Z,930.05
2018-09-28T01:22:10.500Z,930.01
2018-09-28T01:23:10.459Z,930.02
2018-09-28T01:24:10.479Z,930.00
2018-09-28T01:25:10.486Z,929.96
2018-09-28T01:26:10.503Z,929.91
2018-09-28T01:27:10.574Z,929.92
2018-09-28T01:28:10.540Z,929.89
2018-09-28T01:29:10.542Z,929.84
2018-09-28T01:30:10.544Z,929.85
2018-09-28T01:31:10.564Z,929.80
2018-09-28T01:32:10.651Z,929.83
2018-09-28T01:33:10.623Z,929.82
2018-09-28T01:34:10.623Z,929.84
2018-09-28T01:35:10.640Z,929.84
2018-09-28T01:36:10.657Z,929.88
2018-09-28T01:37:10.765Z,929.94
2018-09-28T01:38:10.675Z,929.97
2018-09-28T01:39:10.708Z,929.97
2018-09-28T01:40:10.708Z,929.97
2018-09-28T01:41:10.773Z,930.02
2018-09-28T01:42:10.929Z,929.98
2018-09-28T01:43:10.735Z,929.98
2018-09-28T01:44:10.762Z,929.94
2018-09-28T01:45:10.783Z,929.97
2018-09-28T01:46:10.805Z,929.93
2018-09-28T01:47:10.863Z,929.93
2018-09-28T01:48:10.827Z,929.95
2018-09-28T01:49:10.840Z,929.92
2018-09-28T01:50:10.946Z,929.91
2018-09-28T01:51:10.877Z,929.86
2018-09-28T01:52:10.892Z,929.83
2018-09-28T01:53:10.899Z,929.80
2018-09-28T01:54:10.915Z,929.79
2018-09-28T01:55:11.141Z,929.78
2018-09-28T01:56:10.950Z,929.78
2018-09-28T01:57:10.956Z,929.77
2018-09-28T01:58:10.971Z,929.79
2018-09-28T01:59:10.975Z,929.78
2018-09-28T02:00:11.199Z,929.78
2018-09-28T02:01:11.043Z,929.75
2018-09-28T02:02:11.025Z,929.78
2018-09-28T02:03:11.040Z,929.80
2018-09-28T02:04:11.041Z,929.74
2018-09-28T02:05:11.102Z,929.75
2018-09-28T02:06:11.077Z,929.72
2018-09-28T02:07:11.108Z,929.70
2018-09-28T02:08:11.095Z,929.69
2018-09-28T02:09:11.127Z,929.68
2018-09-28T02:10:11.360Z,929.69
2018-09-28T02:11:11.140Z,929.70
2018-09-28T02:12:11.177Z,929.72
2018-09-28T02:13:11.188Z,929.74
2018-09-28T02:14:11.209Z,929.72
2018-09-28T02:15:11.252Z,929.75
2018-09-28T02:16:11.217Z,929.73
2018-09-28T02:17:11.224Z,929.74
2018-09-28T02:18:11.249Z,929.77
2018-09-28T02:19:11.277Z,929.72
2018-09-28T02:20:11.336Z,929.76
2018-09-28T02:21:11.289Z,929.68
2018-09-28T02:22:11.323Z,929.66
2018-09-28T02:23:11.328Z,929.71
2018-09-28T02:24:11.351Z,929.72
2018-09-28T02:25:11.402Z,929.72
2018-09-28T02:26:11.368Z,929.71
2018-09-28T02:27:11.375Z,929.75
2018-09-28T02:28:11.406Z,929.75
2018-09-28T02:29:11.419Z,929.78
2018-09-28T02:30:11.525Z,929.79
2018-09-28T02:31:11.447Z,929.80
2018-09-28T02:32:11.448Z,929.81
2018-09-28T02:33:11.455Z,929.81
2018-09-28T02:34:11.522Z,929.85
2018-09-28T02:35:11.481Z,929.87
2018-09-28T02:36:11.705Z,929.88
2018-09-28T02:37:11.528Z,929.90
2018-09-28T02:38:11.541Z,929.91
2018-09-28T02:39:11.553Z,929.92
2018-09-28T02:40:11.553Z,929.95
2018-09-28T02:41:11.636Z,929.99
2018-09-28T02:42:11.599Z,929.99
2018-09-28T02:43:11.594Z,929.97
2018-09-28T02:44:11.624Z,929.98
2018-09-28T02:45:11.638Z,929.98
2018-09-28T02:46:11.864Z,929.95
2018-09-28T02:47:11.650Z,929.92
2018-09-28T02:48:11.665Z,929.98
2018-09-28T02:49:11.694Z,929.94
2018-09-28T02:50:11.702Z,929.91
2018-09-28T02:51:11.823Z,929.92
2018-09-28T02:52:11.740Z,929.92
2018-09-28T02:53:11.749Z,929.87
2018-09-28T02:54:11.768Z,929.86
2018-09-28T02:55:11.757Z,929.81
2018-09-28T02:56:12.002Z,929.84
2018-09-28T02:57:11.787Z,929.81
2018-09-28T02:58:11.826Z,929.79
2018-09-28T02:59:11.844Z,929.76
2018-09-28T03:00:11.854Z,929.81
2018-09-28T03:01:12.063Z,929.81
2018-09-28T03:02:11.877Z,929.79
2018-09-28T03:03:11.898Z,929.81
2018-09-28T03:04:11.952Z,929.82
2018-09-28T03:05:11.927Z,929.81
2018-09-28T03:06:12.181Z,929.81
2018-09-28T03:07:11.944Z,929.80
2018-09-28T03:08:11.963Z,929.81
2018-09-28T03:09:11.962Z,929.80
2018-09-28T03:10:11.979Z,929.79
2018-09-28T03:11:12.121Z,929.80
2018-09-28T03:12:12.025Z,929.81
2018-09-28T03:13:12.040Z,929.81
2018-09-28T03:14:12.050Z,929.82
2018-09-28T03:15:12.079Z,929.83
2018-09-28T03:16:12.268Z,929.81
2018-09-28T03:17:12.101Z,929.82
2018-09-28T03:18:12.083Z,929.81
2018-09-28T03:19:12.109Z,929.80
2018-09-28T03:20:12.124Z,929.82
2018-09-28T03:21:12.338Z,929.77
2018-09-28T03:22:12.167Z,929.76
2018-09-28T03:23:12.153Z,929.74
2018-09-28T03:24:12.184Z,929.71
2018-09-28T03:25:12.201Z,929.74
2018-09-28T03:26:12.401Z,929.74
2018-09-28T03:27:12.248Z,929.71
2018-09-28T03:28:12.258Z,929.70
2018-09-28T03:29:12.237Z,929.70
2018-09-28T03:30:12.264Z,929.69
2018-09-28T03:31:12.293Z,929.70
2018-09-28T03:33:12.348Z,929.65
2018-09-28T03:34:12.333Z,929.62
2018-09-28T03:35:12.340Z,929.63
2018-09-28T03:36:12.536Z,929.64
2018-09-28T03:37:12.363Z,929.57
2018-09-28T03:38:12.385Z,929.57
2018-09-28T03:39:12.399Z,929.58
2018-09-28T03:40:12.423Z,929.60
2018-09-28T03:41:12.627Z,929.60
2018-09-28T03:42:12.435Z,929.56
2018-09-28T03:43:12.437Z,929.59
2018-09-28T03:44:12.480Z,929.59
2018-09-28T03:45:12.479Z,929.61
2018-09-28T03:46:12.601Z,929.61
2018-09-28T03:47:12.528Z,929.59
2018-09-28T03:48:12.542Z,929.59
2018-09-28T03:49:12.539Z,929.54
2018-09-28T03:50:12.545Z,929.53
2018-09-28T03:51:12.782Z,929.45
2018-09-28T03:52:12.587Z,929.40
2018-09-28T03:53:12.602Z,929.43
2018-09-28T03:54:12.647Z,929.35
2018-09-28T03:55:12.618Z,929.36
2018-09-28T03:56:12.704Z,929.34
2018-09-28T03:57:12.848Z,929.37
2018-09-28T03:58:12.657Z,929.35
2018-09-28T03:59:12.665Z,929.36
2018-09-28T04:00:12.678Z,929.38
2018-09-28T04:01:12.704Z,929.36
2018-09-28T04:02:12.916Z,929.30
2018-09-28T04:03:12.727Z,929.32
2018-09-28T04:04:12.763Z,929.34
2018-09-28T04:05:12.750Z,929.33
2018-09-28T04:06:12.792Z,929.33
2018-09-28T04:07:12.996Z,929.34
2018-09-28T04:08:12.817Z,929.32
2018-09-28T04:09:12.839Z,929.28
2018-09-28T04:10:12.837Z,929.31
2018-09-28T04:11:12.840Z,929.26
2018-09-28T04:12:12.912Z,929.27
2018-09-28T04:13:12.868Z,929.27
2018-09-28T04:14:12.930Z,929.26
2018-09-28T04:15:12.995Z,929.25
2018-09-28T04:16:13.133Z,929.31
2018-09-28T04:17:12.935Z,929.30
2018-09-28T04:18:12.969Z,929.36
2018-09-28T04:19:12.960Z,929.35
2018-09-28T04:20:12.979Z,929.37
2018-09-28T04:21:13.047Z,929.39
2018-09-28T04:22:12.991Z,929.37
2018-09-28T04:23:13.220Z,929.38
2018-09-28T04:24:13.033Z,929.35
2018-09-28T04:25:13.046Z,929.37
2018-09-28T04:26:13.069Z,929.30
2018-09-28T04:27:13.080Z,929.31
2018-09-28T04:28:13.095Z,929.33
2018-09-28T04:29:13.143Z,929.34
2018-09-28T04:30:13.106Z,929.37
2018-09-28T04:31:13.119Z,929.39
2018-09-28T04:32:13.159Z,929.36
2018-09-28T04:33:13.165Z,929.35
2018-09-28T04:34:13.231Z,929.30
2018-09-28T04:35:13.195Z,929.34
2018-09-28T04:36:13.205Z,929.33
2018-09-28T04:37:13.256Z,929.33
2018-09-28T04:38:13.249Z,929.38
2018-09-28T04:39:13.446Z,929.35
2018-09-28T04:40:13.258Z,929.37
2018-09-28T04:41:13.258Z,929.35
2018-09-28T04:42:13.307Z,929.36
2018-09-28T04:43:13.318Z,929.30
2018-09-28T04:44:13.514Z,929.31
2018-09-28T04:45:13.457Z,929.29
2018-09-28T04:46:13.338Z,929.29
2018-09-28T04:47:13.353Z,929.25
2018-09-28T04:48:13.384Z,929.26
2018-09-28T04:49:13.592Z,929.28
2018-09-28T04:50:13.399Z,929.27
2018-09-28T04:51:13.409Z,929.30
2018-09-28T04:52:13.435Z,929.28
2018-09-28T04:53:13.439Z,929.32
2018-09-28T04:54:13.625Z,929.24
2018-09-28T04:55:13.501Z,929.26
2018-09-28T04:56:13.504Z,929.26
2018-09-28T04:57:13.489Z,929.27
2018-09-28T04:58:13.516Z,929.28
2018-09-28T04:59:13.614Z,929.25
2018-09-28T05:00:13.561Z,929.24
2018-09-28T05:01:13.564Z,929.27
2018-09-28T05:02:13.581Z,929.25
2018-09-28T05:03:13.630Z,929.24
2018-09-28T05:04:13.589Z,929.26
2018-09-28T05:05:13.599Z,929.25
2018-09-28T05:06:13.623Z,929.29
2018-09-28T05:07:13.639Z,929.31
2018-09-28T05:08:13.860Z,929.27
2018-09-28T05:09:13.673Z,929.25
2018-09-28T05:10:13.704Z,929.24
2018-09-28T05:11:13.706Z,929.23
2018-09-28T05:12:13.721Z,929.24
2018-09-28T05:13:13.919Z,929.30
2018-09-28T05:14:13.755Z,929.28
2018-09-28T05:15:13.744Z,929.26
2018-09-28T05:16:13.776Z,929.33
2018-09-28T05:17:13.791Z,929.29
2018-09-28T05:18:13.850Z,929.34
2018-09-28T05:19:13.793Z,929.28
2018-09-28T05:20:13.832Z,929.31
2018-09-28T05:21:13.832Z,929.30
2018-09-28T05:22:13.865Z,929.27
2018-09-28T05:23:13.964Z,929.27
2018-09-28T05:24:13.886Z,929.25
2018-09-28T05:25:13.913Z,929.27
2018-09-28T05:26:13.898Z,929.29
2018-09-28T05:27:13.925Z,929.25
2018-09-28T05:28:13.952Z,929.28
2018-09-28T05:29:14.016Z,929.30
2018-09-28T05:30:13.969Z,929.29
2018-09-28T05:31:14.038Z,929.34
2018-09-28T05:32:14.085Z,929.35
2018-09-28T05:33:14.009Z,929.33
2018-09-28T05:34:14.066Z,929.31
2018-09-28T05:35:14.036Z,929.30
2018-09-28T05:36:14.028Z,929.27
2018-09-28T05:37:14.158Z,929.28
2018-09-28T05:38:14.085Z,929.29
2018-09-28T05:39:14.178Z,929.31
2018-09-28T05:40:14.094Z,929.25
2018-09-28T05:41:14.112Z,929.26
2018-09-28T05:42:14.123Z,929.26
2018-09-28T05:43:14.139Z,929.23
2018-09-28T05:44:14.374Z,929.23
2018-09-28T05:45:14.174Z,929.17
2018-09-28T05:46:14.288Z,929.20
2018-09-28T05:47:14.211Z,929.21
2018-09-28T05:48:14.214Z,929.25
2018-09-28T05:49:14.276Z,929.26
2018-09-28T05:50:14.226Z,929.28
2018-09-28T05:51:14.292Z,929.29
2018-09-28T05:52:14.251Z,929.35
2018-09-28T05:53:14.289Z,929.32
2018-09-28T05:54:14.345Z,929.29
2018-09-28T05:55:14.326Z,929.27
2018-09-28T05:56:14.325Z,929.27
2018-09-28T05:57:14.339Z,929.23
2018-09-28T05:58:14.369Z,929.21
2018-09-28T05:59:14.421Z,929.18
2018-09-28T06:00:14.373Z,929.18
2018-09-28T06:01:14.404Z,929.16
2018-09-28T06:02:14.602Z,929.17
2018-09-28T06:03:14.440Z,929.13
2018-09-28T06:04:14.444Z,929.19
2018-09-28T06:05:14.455Z,929.19
2018-09-28T06:06:14.454Z,929.19
2018-09-28T06:07:14.578Z,929.17
2018-09-28T06:08:14.485Z,929.16
2018-09-28T06:09:14.508Z,929.16
2018-09-28T06:10:14.511Z,929.12
2018-09-28T06:11:14.525Z,929.14
2018-09-28T06:12:14.597Z,929.11
2018-09-28T06:13:14.549Z,929.11
2018-09-28T06:14:14.575Z,929.07
2018-09-28T06:15:14.623Z,929.07
2018-09-28T06:16:14.605Z,929.04
2018-09-28T06:17:14.671Z,929.04
2018-09-28T06:18:14.628Z,929.04
2018-09-28T06:19:14.686Z,929.00
2018-09-28T06:20:14.677Z,929.00
2018-09-28T06:21:14.668Z,928.98
2018-09-28T06:22:14.722Z,929.02
2018-09-28T06:23:14.717Z,929.02
2018-09-28T06:24:14.814Z,929.04
2018-09-28T06:25:14.748Z,929.02
2018-09-28T06:26:14.724Z,929.02
2018-09-28T06:27:14.934Z,929.05
2018-09-28T06:28:14.756Z,929.02
2018-09-28T06:29:14.774Z,929.03
2018-09-28T06:30:14.844Z,929.01
2018-09-28T06:31:14.823Z,928.97
2018-09-28T06:32:14.915Z,929.02
2018-09-28T06:33:14.832Z,928.96
2018-09-28T06:34:14.852Z,928.95
2018-09-28T06:35:14.919Z,928.94
2018-09-28T06:36:14.941Z,928.94
2018-09-28T06:37:14.950Z,928.96
2018-09-28T06:38:14.899Z,928.99
2018-09-28T06:39:14.909Z,928.98
2018-09-28T06:40:14.932Z,929.02
2018-09-28T06:41:14.941Z,929.01
2018-09-28T06:42:14.973Z,929.00
2018-09-28T06:43:15.037Z,929.01
2018-09-28T06:44:14.998Z,928.98
2018-09-28T06:45:15.011Z,929.03
2018-09-28T06:46:14.999Z,929.01
2018-09-28T06:47:15.023Z,929.05
2018-09-28T06:48:15.214Z,929.07
2018-09-28T06:49:15.073Z,929.08
2018-09-28T06:50:15.069Z,929.10
2018-09-28T06:51:15.124Z,929.13
2018-09-28T06:52:15.101Z,929.19
2018-09-28T06:53:15.114Z,929.16
2018-09-28T06:54:15.188Z,929.17
2018-09-28T06:55:15.124Z,929.19
2018-09-28T06:56:15.216Z,929.16
2018-09-28T06:57:15.177Z,929.20
2018-09-28T06:58:15.222Z,929.20
2018-09-28T06:59:15.191Z,929.16
2018-09-28T07:00:15.299Z,929.19
2018-09-28T07:01:15.259Z,929.21
2018-09-28T07:02:15.233Z,929.23
2018-09-28T07:03:15.245Z,929.27
2018-09-28T07:04:15.270Z,929.27
2018-09-28T07:05:15.288Z,929.29
2018-09-28T07:06:15.382Z,929.27
2018-09-28T07:07:15.288Z,929.29
2018-09-28T07:08:15.335Z,929.29
2018-09-28T07:09:15.380Z,929.29
2018-09-28T07:10:15.352Z,929.29
2018-09-28T07:11:15.370Z,929.31
2018-09-28T07:12:15.416Z,929.31
2018-09-28T07:13:15.409Z,929.35
2018-09-28T07:14:15.460Z,929.33
2018-09-28T07:15:15.467Z,929.32
2018-09-28T07:16:15.454Z,929.28
2018-09-28T07:17:15.448Z,929.30
2018-09-28T07:18:15.456Z,929.31
2018-09-28T07:19:15.473Z,929.32
2018-09-28T07:20:15.684Z,929.29
2018-09-28T07:21:15.484Z,929.29
2018-09-28T07:22:15.523Z,929.29
2018-09-28T07:23:15.575Z,929.32
2018-09-28T07:24:15.588Z,929.32
2018-09-28T07:25:15.673Z,929.34
2018-09-28T07:26:15.585Z,929.34
2018-09-28T07:27:15.594Z,929.34
2018-09-28T07:28:15.596Z,929.34
2018-09-28T07:29:15.605Z,929.36
2018-09-28T07:30:15.773Z,929.37
2018-09-28T07:31:15.639Z,929.38
2018-09-28T07:32:15.645Z,929.36
2018-09-28T07:33:15.667Z,929.39
2018-09-28T07:34:15.691Z,929.40
2018-09-28T07:35:15.702Z,929.43
2018-09-28T07:36:15.890Z,929.48
2018-09-28T07:37:15.827Z,929.48
2018-09-28T07:38:15.736Z,929.49
2018-09-28T07:39:15.741Z,929.49
2018-09-28T07:40:15.809Z,929.47
2018-09-28T07:41:15.775Z,929.45
2018-09-28T07:42:15.811Z,929.52
2018-09-28T07:43:15.847Z,929.53
2018-09-28T07:44:15.837Z,929.52
2018-09-28T07:45:15.918Z,929.53
2018-09-28T07:46:15.864Z,929.54
2018-09-28T07:47:15.884Z,929.57
2018-09-28T07:48:15.954Z,929.56
2018-09-28T07:49:15.963Z,929.62
2018-09-28T07:50:16.106Z,929.58
2018-09-28T07:51:15.908Z,929.54
2018-09-28T07:52:15.929Z,929.54
2018-09-28T07:53:15.929Z,929.57
2018-09-28T07:54:15.942Z,929.55
2018-09-28T07:55:16.024Z,929.58
2018-09-28T07:56:15.984Z,929.57
2018-09-28T07:57:15.999Z,929.59
2018-09-28T07:58:16.056Z,929.60
2018-09-28T07:59:16.031Z,929.58
2018-09-28T08:00:16.088Z,929.59
2018-09-28T08:01:16.058Z,929.62
2018-09-28T08:02:16.076Z,929.63
2018-09-28T08:03:16.076Z,929.65
2018-09-28T08:04:16.081Z,929.70
2018-09-28T08:05:16.163Z,929.70
2018-09-28T08:06:16.123Z,929.72
2018-09-28T08:07:16.138Z,929.73
2018-09-28T08:08:16.154Z,929.73
2018-09-28T08:09:16.165Z,929.76
2018-09-28T08:10:16.217Z,929.80
2018-09-28T08:11:16.209Z,929.84
2018-09-28T08:12:16.204Z,929.83
2018-09-28T08:13:16.210Z,929.87
2018-09-28T08:14:16.234Z,929.90
2018-09-28T08:15:16.284Z,929.91
2018-09-28T08:16:16.285Z,929.90
2018-09-28T08:17:16.281Z,929.95
2018-09-28T08:18:16.445Z,929.94
2018-09-28T08:19:16.293Z,929.99
2018-09-28T08:20:16.360Z,930.03
2018-09-28T08:21:16.337Z,930.05
2018-09-28T08:22:16.332Z,930.05
2018-09-28T08:23:16.481Z,930.07
2018-09-28T08:24:16.361Z,930.06
2018-09-28T08:25:16.374Z,930.04
2018-09-28T08:26:16.429Z,930.09
2018-09-28T08:27:16.417Z,930.05
2018-09-28T08:28:16.546Z,930.05
2018-09-28T08:29:16.439Z,930.07
2018-09-28T08:30:16.467Z,930.03
2018-09-28T08:31:16.472Z,930.09
2018-09-28T08:32:16.488Z,930.11
2018-09-28T08:33:16.590Z,930.10
2018-09-28T08:34:16.521Z,930.10
2018-09-28T08:35:16.528Z,930.09
2018-09-28T08:36:16.598Z,930.10
2018-09-28T08:37:16.558Z,930.13
2018-09-28T08:38:16.663Z,930.12
2018-09-28T08:39:16.574Z,930.12
2018-09-28T08:40:16.586Z,930.08
2018-09-28T08:41:16.604Z,930.10
2018-09-28T08:42:16.624Z,930.09
2018-09-28T08:43:16.740Z,930.11
2018-09-28T08:44:16.648Z,930.09
2018-09-28T08:45:16.678Z,930.14
2018-09-28T08:46:16.677Z,930.17
2018-09-28T08:47:16.676Z,930.17
2018-09-28T08:48:16.748Z,930.19
2018-09-28T08:49:16.788Z,930.16
2018-09-28T08:50:16.738Z,930.19
2018-09-28T08:51:16.803Z,930.22
2018-09-28T08:52:16.754Z,930.21
2018-09-28T08:53:16.826Z,930.24
2018-09-28T08:54:16.791Z,930.27
2018-09-28T08:55:16.852Z,930.27
2018-09-28T08:56:16.796Z,930.27
2018-09-28T08:57:16.823Z,930.29
2018-09-28T08:58:16.840Z,930.28
2018-09-28T08:59:16.856Z,930.27
2018-09-28T09:00:16.908Z,930.33
2018-09-28T09:01:16.868Z,930.34
2018-09-28T09:02:17.024Z,930.31
2018-09-28T09:03:16.907Z,930.35
2018-09-28T09:04:16.976Z,930.38
2018-09-28T09:05:17.027Z,930.44
2018-09-28T09:06:16.942Z,930.42
2018-09-28T09:07:16.969Z,930.46
2018-09-28T09:08:16.970Z,930.48
2018-09-28T09:09:17.006Z,930.47
2018-09-28T09:10:16.997Z,930.47
2018-09-28T09:11:17.073Z,930.49
2018-09-28T09:12:17.027Z,930.46
2018-09-28T09:13:17.048Z,930.46
2018-09-28T09:14:17.052Z,930.47
2018-09-28T09:15:17.092Z,930.45
2018-09-28T09:16:17.149Z,930.45
2018-09-28T09:17:17.119Z,930.46
2018-09-28T09:18:17.145Z,930.46
2018-09-28T09:19:17.143Z,930.44
2018-09-28T09:20:17.154Z,930.46
2018-09-28T09:21:17.218Z,930.50
2018-09-28T09:22:17.171Z,930.51
2018-09-28T09:23:17.179Z,930.51
2018-09-28T09:24:17.204Z,930.52
2018-09-28T09:25:17.212Z,930.56
2018-09-28T09:26:17.291Z,930.56
2018-09-28T09:27:17.310Z,930.54
2018-09-28T09:28:17.267Z,930.52
2018-09-28T09:29:17.324Z,930.53
2018-09-28T09:30:17.388Z,930.50
2018-09-28T09:31:17.408Z,930.50
2018-09-28T09:32:17.332Z,930.53
2018-09-28T09:33:17.329Z,930.52
2018-09-28T09:34:17.357Z,930.55
2018-09-28T09:35:17.374Z,930.57
2018-09-28T09:36:17.415Z,930.59
2018-09-28T09:37:17.402Z,930.59
2018-09-28T09:38:17.392Z,930.55
2018-09-28T09:39:17.460Z,930.54
2018-09-28T09:40:17.419Z,930.47
2018-09-28T09:41:17.535Z,930.44
2018-09-28T09:42:17.444Z,930.49
2018-09-28T09:43:17.477Z,930.51
2018-09-28T09:44:17.479Z,930.54
2018-09-28T09:45:17.510Z,930.63
2018-09-28T09:46:17.551Z,930.67
2018-09-28T09:47:17.514Z,930.72
2018-09-28T09:48:17.559Z,930.73
2018-09-28T09:49:17.538Z,930.74
2018-09-28T09:50:17.567Z,930.71
2018-09-28T09:51:17.631Z,930.70
2018-09-28T09:52:17.616Z,930.68
2018-09-28T09:53:17.619Z,930.69
2018-09-28T09:54:17.630Z,930.72
2018-09-28T09:55:17.624Z,930.73
2018-09-28T09:56:17.696Z,930.73
2018-09-28T09:57:17.670Z,930.80
2018-09-28T09:58:17.663Z,930.80
2018-09-28T09:59:17.685Z,930.89
2018-09-28T10:00:17.717Z,930.96
2018-09-28T10:01:17.783Z,931.03
2018-09-28T10:02:17.738Z,931.07
2018-09-28T10:03:17.766Z,931.07
2018-09-28T10:04:17.759Z,931.09
2018-09-28T10:05:17.789Z,931.11
2018-09-28T10:06:17.850Z,931.15
2018-09-28T10:07:17.802Z,931.16
2018-09-28T10:08:17.837Z,931.16
2018-09-28T10:09:17.850Z,931.18
2018-09-28T10:10:17.850Z,931.19
2018-09-28T10:11:17.979Z,931.18
2018-09-28T10:12:17.921Z,931.17
2018-09-28T10:13:17.892Z,931.16
2018-09-28T10:14:17.924Z,931.13
2018-09-28T10:15:17.906Z,931.08
2018-09-28T10:16:18.051Z,931.06
2018-09-28T10:17:17.938Z,931.10
2018-09-28T10:18:17.958Z,931.15
2018-09-28T10:19:18.103Z,931.18
2018-09-28T10:20:18.000Z,931.25
2018-09-28T10:21:18.121Z,931.23
2018-09-28T10:22:18.011Z,931.19
2018-09-28T10:23:18.031Z,931.12
2018-09-28T10:24:18.051Z,931.09
2018-09-28T10:25:18.058Z,931.12
2018-09-28T10:26:18.069Z,931.13
2018-09-28T10:27:18.117Z,931.15
2018-09-28T10:28:18.133Z,931.17
2018-09-28T10:29:18.181Z,931.23
2018-09-28T10:30:18.150Z,931.25
2018-09-28T10:31:18.156Z,931.32
2018-09-28T10:32:18.158Z,931.29
2018-09-28T10:33:18.169Z,931.30
2018-09-28T10:34:18.252Z,931.34
2018-09-28T10:35:18.210Z,931.34
2018-09-28T10:36:18.243Z,931.34
2018-09-28T10:37:18.310Z,931.34
2018-09-28T10:38:18.361Z,931.34
2018-09-28T10:39:18.339Z,931.39
2018-09-28T10:40:18.333Z,931.42
2018-09-28T10:41:18.374Z,931.44
2018-09-28T10:42:18.342Z,931.49
2018-09-28T10:43:18.390Z,931.47
2018-09-28T10:44:18.342Z,931.54
2018-09-28T10:45:18.433Z,931.55
2018-09-28T10:46:18.369Z,931.58
2018-09-28T10:47:18.415Z,931.62
2018-09-28T10:48:18.502Z,931.63
2018-09-28T10:49:18.443Z,931.67
2018-09-28T10:50:18.450Z,931.69
2018-09-28T10:51:18.517Z,931.73
2018-09-28T10:52:18.769Z,931.73
2018-09-28T10:53:18.539Z,931.70
2018-09-28T10:54:18.497Z,931.71
2018-09-28T10:55:18.524Z,931.73
2018-09-28T10:56:18.554Z,931.73
2018-09-28T10:57:18.592Z,931.73
2018-09-28T10:58:18.701Z,931.82
2018-09-28T10:59:18.570Z,931.84
2018-09-28T11:00:18.652Z,931.89
2018-09-28T11:01:18.629Z,931.96
2018-09-28T11:02:18.650Z,932.00
2018-09-28T11:03:18.821Z,932.00
2018-09-28T11:04:18.714Z,932.02
2018-09-28T11:05:18.691Z,932.03
2018-09-28T11:06:18.693Z,932.03
2018-09-28T11:07:18.709Z,931.99
2018-09-28T11:08:18.830Z,932.00
2018-09-28T11:09:18.985Z,931.95
2018-09-28T11:10:18.804Z,931.98
2018-09-28T11:11:18.765Z,932.04
2018-09-28T11:12:18.787Z,932.08
2018-09-28T11:13:18.801Z,932.15
2018-09-28T11:14:18.856Z,932.14
2018-09-28T11:15:18.907Z,932.12
2018-09-28T11:16:18.845Z,932.16
2018-09-28T11:17:18.874Z,932.18
2018-09-28T11:18:18.878Z,932.20
2018-09-28T11:19:18.925Z,932.21
2018-09-28T11:20:18.899Z,932.20
2018-09-28T11:21:18.993Z,932.23
2018-09-28T11:22:18.929Z,932.23
2018-09-28T11:23:18.940Z,932.25
2018-09-28T11:24:19.072Z,932.25
2018-09-28T11:25:18.970Z,932.26
2018-09-28T11:26:19.074Z,932.28
2018-09-28T11:27:19.047Z,932.35
2018-09-28T11:28:19.074Z,932.31
2018-09-28T11:29:19.219Z,932.34
2018-09-28T11:30:19.056Z,932.33
2018-09-28T11:31:19.063Z,932.33
2018-09-28T11:32:19.097Z,932.38
2018-09-28T11:33:19.142Z,932.36
2018-09-28T11:34:19.291Z,932.35
2018-09-28T11:35:19.136Z,932.34
2018-09-28T11:36:19.132Z,932.32
2018-09-28T11:37:19.171Z,932.31
2018-09-28T11:38:19.158Z,932.25
2018-09-28T11:39:19.337Z,932.21
2018-09-28T11:40:19.192Z,932.22
2018-09-28T11:41:19.203Z,932.23
2018-09-28T11:42:19.229Z,932.20
2018-09-28T11:43:19.323Z,932.22
2018-09-28T11:44:19.367Z,932.27
2018-09-28T11:45:19.352Z,932.25
2018-09-28T11:46:19.275Z,932.28
2018-09-28T11:47:19.305Z,932.27
2018-09-28T11:48:19.317Z,932.28
2018-09-28T11:49:19.390Z,932.27
2018-09-28T11:50:19.346Z,932.18
2018-09-28T11:51:19.411Z,932.21
2018-09-28T11:52:19.381Z,932.22
2018-09-28T11:53:19.593Z,932.18
2018-09-28T11:54:19.444Z,932.15
2018-09-28T11:55:19.408Z,932.18
2018-09-28T11:56:19.427Z,932.19
2018-09-28T11:57:19.529Z,932.22
2018-09-28T11:58:19.661Z,932.21
2018-09-28T11:59:19.458Z,932.21
2018-09-28T12:00:19.488Z,932.22
2018-09-28T12:01:19.510Z,932.17
2018-09-28T12:02:19.504Z,932.19
2018-09-28T12:03:19.591Z,932.18
2018-09-28T12:04:19.537Z,932.18
2018-09-28T12:05:19.557Z,932.16
2018-09-28T12:06:19.643Z,932.21
2018-09-28T12:07:19.607Z,932.25
2018-09-28T12:08:19.658Z,932.25
2018-09-28T12:09:19.692Z,932.24
2018-09-28T12:10:19.636Z,932.23
2018-09-28T12:11:19.645Z,932.24
2018-09-28T12:12:19.733Z,932.24
2018-09-28T12:13:19.883Z,932.25
2018-09-28T12:14:19.684Z,932.20
2018-09-28T12:15:19.763Z,932.23
2018-09-28T12:16:19.712Z,932.23
2018-09-28T12:17:19.738Z,932.27
2018-09-28T12:18:19.929Z,932.25
2018-09-28T12:19:19.777Z,932.30
2018-09-28T12:20:19.789Z,932.38
2018-09-28T12:21:19.871Z,932.43
2018-09-28T12:22:19.792Z,932.42
2018-09-28T12:23:19.927Z,932.45
2018-09-28T12:24:19.914Z,932.42
2018-09-28T12:25:19.851Z,932.42
2018-09-28T12:26:19.877Z,932.43
2018-09-28T12:27:19.914Z,932.43
2018-09-28T12:28:20.099Z,932.44
2018-09-28T12:29:19.916Z,932.50